createdAt,value
2018-06-01T00:00:58.837Z,1011.36
2018-06-01T00:01:58.825Z,1011.35
2018-06-01T00:02:58.832Z,1011.35
2018-06-01T00:03:58.813Z,1011.41
2018-06-01T00:04:58.800Z,1011.41
2018-06-01T00:05:58.784Z,1011.43
2018-06-01T00:06:58.777Z,1011.42
2018-06-01T00:07:58.764Z,1011.45
2018-06-01T00:08:58.771Z,1011.45
2018-06-01T00:09:58.742Z,1011.46
2018-06-01T00:10:58.729Z,1011.45
2018-06-01T00:11:58.721Z,1011.47
2018-06-01T00:12:58.710Z,1011.49
2018-06-01T00:13:58.716Z,1011.56
2018-06-01T00:14:58.687Z,1011.54
2018-06-01T00:15:58.676Z,1011.57
2018-06-01T00:16:58.669Z,1011.58
2018-06-01T00:17:58.653Z,1011.55
2018-06-01T00:18:58.646Z,1011.58
2018-06-01T00:19:58.648Z,1011.62
2018-06-01T00:20:58.620Z,1011.62
2018-06-01T00:21:58.608Z,1011.61
2018-06-01T00:22:58.597Z,1011.62
2018-06-01T00:23:58.590Z,1011.63
2018-06-01T00:24:58.593Z,1011.65
2018-06-01T00:25:58.567Z,1011.70
2018-06-01T00:26:58.552Z,1011.70
2018-06-01T00:27:58.539Z,1011.66
2018-06-01T00:28:58.528Z,1011.70
2018-06-01T00:29:58.538Z,1011.67
2018-06-01T00:30:58.528Z,1011.60
2018-06-01T00:31:58.503Z,1011.62
2018-06-01T00:32:58.490Z,1011.62
2018-06-01T00:33:58.522Z,1011.60
2018-06-01T00:34:58.467Z,1011.58
2018-06-01T00:35:58.472Z,1011.56
2018-06-01T00:36:58.449Z,1011.59
2018-06-01T00:37:58.436Z,1011.61
2018-06-01T00:38:58.421Z,1011.60
2018-06-01T00:39:58.416Z,1011.55
2018-06-01T00:40:58.416Z,1011.61
2018-06-01T00:41:58.407Z,1011.55
2018-06-01T00:42:58.383Z,1011.54
2018-06-01T00:43:58.366Z,1011.53
2018-06-01T00:44:58.360Z,1011.53
2018-06-01T00:45:58.364Z,1011.49
2018-06-01T00:46:58.336Z,1011.46
2018-06-01T00:47:58.323Z,1011.46
2018-06-01T00:48:58.318Z,1011.39
2018-06-01T00:49:58.297Z,1011.36
2018-06-01T00:50:58.322Z,1011.34
2018-06-01T00:51:58.302Z,1011.33
2018-06-01T00:52:58.273Z,1011.28
2018-06-01T00:53:58.259Z,1011.27
2018-06-01T00:54:58.248Z,1011.28
2018-06-01T00:55:58.238Z,1011.30
2018-06-01T00:56:58.234Z,1011.29
2018-06-01T00:57:58.233Z,1011.29
2018-06-01T00:58:58.206Z,1011.28
2018-06-01T00:59:58.192Z,1011.34
2018-06-01T01:00:58.197Z,1011.35
2018-06-01T01:01:58.174Z,1011.35
2018-06-01T01:02:58.178Z,1011.40
2018-06-01T01:03:58.148Z,1011.38
2018-06-01T01:04:58.140Z,1011.42
2018-06-01T01:05:58.133Z,1011.42
2018-06-01T01:06:58.119Z,1011.42
2018-06-01T01:07:58.132Z,1011.40
2018-06-01T01:08:58.127Z,1011.36
2018-06-01T01:09:58.098Z,1011.31
2018-06-01T01:10:58.072Z,1011.28
2018-06-01T01:11:58.074Z,1011.26
2018-06-01T01:12:58.068Z,1011.27
2018-06-01T01:13:58.043Z,1011.25
2018-06-01T01:14:58.029Z,1011.27
2018-06-01T01:15:58.019Z,1011.30
2018-06-01T01:16:58.008Z,1011.32
2018-06-01T01:17:58.013Z,1011.32
2018-06-01T01:18:57.987Z,1011.32
2018-06-01T01:19:57.979Z,1011.38
2018-06-01T01:20:57.965Z,1011.36
2018-06-01T01:21:57.949Z,1011.39
2018-06-01T01:22:57.951Z,1011.30
2018-06-01T01:23:57.955Z,1011.32
2018-06-01T01:24:57.920Z,1011.29
2018-06-01T01:25:57.910Z,1011.27
2018-06-01T01:26:57.904Z,1011.29
2018-06-01T01:27:57.890Z,1011.32
2018-06-01T01:28:57.923Z,1011.37
2018-06-01T01:29:57.881Z,1011.43
2018-06-01T01:30:57.857Z,1011.47
2018-06-01T01:31:57.839Z,1011.46
2018-06-01T01:32:57.835Z,1011.50
2018-06-01T01:33:57.825Z,1011.49
2018-06-01T01:34:57.833Z,1011.44
2018-06-01T01:35:57.804Z,1011.47
2018-06-01T01:36:57.794Z,1011.49
2018-06-01T01:37:57.778Z,1011.50
2018-06-01T01:38:57.764Z,1011.52
2018-06-01T01:39:57.756Z,1011.55
2018-06-01T01:40:57.765Z,1011.55
2018-06-01T01:41:57.740Z,1011.58
2018-06-01T01:42:57.718Z,1011.54
2018-06-01T01:43:57.734Z,1011.60
2018-06-01T01:44:57.710Z,1011.58
2018-06-01T01:45:57.698Z,1011.57
2018-06-01T01:46:57.694Z,1011.53
2018-06-01T01:47:57.666Z,1011.54
2018-06-01T01:48:57.657Z,1011.53
2018-06-01T01:49:57.656Z,1011.54
2018-06-01T01:50:57.638Z,1011.56
2018-06-01T01:51:57.639Z,1011.57
2018-06-01T01:52:57.613Z,1011.60
2018-06-01T01:53:57.604Z,1011.63
2018-06-01T01:54:57.587Z,1011.62
2018-06-01T01:55:57.596Z,1011.63
2018-06-01T01:56:57.836Z,1011.67
2018-06-01T01:57:57.561Z,1011.69
2018-06-01T01:58:57.546Z,1011.75
2018-06-01T01:59:57.534Z,1011.80
2018-06-01T02:00:57.537Z,1011.80
2018-06-01T02:01:57.536Z,1011.81
2018-06-01T02:02:57.504Z,1011.86
2018-06-01T02:03:57.491Z,1011.88
2018-06-01T02:04:57.483Z,1011.89
2018-06-01T02:05:57.466Z,1011.87
2018-06-01T02:06:57.472Z,1011.84
2018-06-01T02:07:57.472Z,1011.87
2018-06-01T02:08:57.436Z,1011.83
2018-06-01T02:09:57.434Z,1011.76
2018-06-01T02:10:57.413Z,1011.72
2018-06-01T02:11:57.421Z,1011.69
2018-06-01T02:12:57.407Z,1011.64
2018-06-01T02:13:57.384Z,1011.59
2018-06-01T02:14:57.373Z,1011.55
2018-06-01T02:15:57.361Z,1011.52
2018-06-01T02:16:57.412Z,1011.49
2018-06-01T02:17:57.342Z,1011.46
2018-06-01T02:18:57.328Z,1011.39
2018-06-01T02:19:57.318Z,1011.43
2018-06-01T02:20:57.310Z,1011.37
2018-06-01T02:21:57.314Z,1011.38
2018-06-01T02:22:57.286Z,1011.36
2018-06-01T02:23:57.277Z,1011.33
2018-06-01T02:24:57.257Z,1011.29
2018-06-01T02:25:57.252Z,1011.22
2018-06-01T02:26:57.257Z,1011.22
2018-06-01T02:27:57.251Z,1011.20
2018-06-01T02:28:57.220Z,1011.14
2018-06-01T02:29:57.210Z,1011.19
2018-06-01T02:30:57.195Z,1011.08
2018-06-01T02:31:57.181Z,1011.09
2018-06-01T02:32:57.172Z,1011.12
2018-06-01T02:33:57.175Z,1011.12
2018-06-01T02:34:57.153Z,1011.14
2018-06-01T02:35:57.142Z,1011.12
2018-06-01T02:36:57.138Z,1011.17
2018-06-01T02:37:57.136Z,1011.18
2018-06-01T02:38:57.111Z,1011.20
2018-06-01T02:39:57.100Z,1011.24
2018-06-01T02:40:57.090Z,1011.24
2018-06-01T02:41:57.091Z,1011.26
2018-06-01T02:42:57.063Z,1011.26
2018-06-01T02:43:57.070Z,1011.25
2018-06-01T02:44:57.067Z,1011.28
2018-06-01T02:45:57.030Z,1011.23
2018-06-01T02:46:57.018Z,1011.23
2018-06-01T02:47:57.011Z,1011.27
2018-06-01T02:48:57.030Z,1011.28
2018-06-01T02:49:56.986Z,1011.29
2018-06-01T02:50:56.968Z,1011.31
2018-06-01T02:51:56.964Z,1011.33
2018-06-01T02:52:56.956Z,1011.28
2018-06-01T02:53:56.958Z,1011.29
2018-06-01T02:54:56.942Z,1011.30
2018-06-01T02:55:56.919Z,1011.30
2018-06-01T02:56:56.907Z,1011.28
2018-06-01T02:57:56.900Z,1011.30
2018-06-01T02:58:56.883Z,1011.26
2018-06-01T02:59:56.875Z,1011.25
2018-06-01T03:00:56.877Z,1011.22
2018-06-01T03:01:56.855Z,1011.19
2018-06-01T03:02:56.841Z,1011.15
2018-06-01T03:03:56.831Z,1011.18
2018-06-01T03:04:56.817Z,1011.11
2018-06-01T03:05:56.825Z,1011.08
2018-06-01T03:06:56.793Z,1011.04
2018-06-01T03:07:56.776Z,1011.00
2018-06-01T03:08:56.775Z,1010.97
2018-06-01T03:09:56.758Z,1010.94
2018-06-01T03:10:56.749Z,1010.88
2018-06-01T03:11:56.752Z,1010.87
2018-06-01T03:12:56.723Z,1010.88
2018-06-01T03:13:56.713Z,1010.81
2018-06-01T03:14:56.703Z,1010.86
2018-06-01T03:15:56.715Z,1010.82
2018-06-01T03:16:56.688Z,1010.85
2018-06-01T03:17:56.676Z,1010.88
2018-06-01T03:18:56.664Z,1010.91
2018-06-01T03:19:56.644Z,1010.97
2018-06-01T03:20:56.641Z,1011.01
2018-06-01T03:21:56.644Z,1011.04
2018-06-01T03:22:56.615Z,1011.07
2018-06-01T03:23:56.605Z,1011.06
2018-06-01T03:24:56.595Z,1011.02
2018-06-01T03:25:56.588Z,1011.01
2018-06-01T03:26:56.569Z,1011.00
2018-06-01T03:27:56.573Z,1011.01
2018-06-01T03:28:56.547Z,1011.04
2018-06-01T03:29:56.531Z,1011.08
2018-06-01T03:30:56.528Z,1011.11
2018-06-01T03:31:56.529Z,1011.14
2018-06-01T03:32:56.504Z,1011.17
2018-06-01T03:33:56.507Z,1011.15
2018-06-01T03:34:56.481Z,1011.23
2018-06-01T03:35:56.484Z,1011.28
2018-06-01T03:36:56.459Z,1011.31
2018-06-01T03:37:56.443Z,1011.39
2018-06-01T03:38:56.433Z,1011.39
2018-06-01T03:39:56.420Z,1011.38
2018-06-01T03:40:56.423Z,1011.36
2018-06-01T03:41:56.406Z,1011.34
2018-06-01T03:42:56.401Z,1011.32
2018-06-01T03:43:56.390Z,1011.35
2018-06-01T03:44:56.367Z,1011.35
2018-06-01T03:45:56.369Z,1011.31
2018-06-01T03:46:56.337Z,1011.33
2018-06-01T03:47:56.343Z,1011.25
2018-06-01T03:48:56.316Z,1011.23
2018-06-01T03:49:56.314Z,1011.24
2018-06-01T03:50:56.322Z,1011.23
2018-06-01T03:51:56.289Z,1011.23
2018-06-01T03:52:56.277Z,1011.26
2018-06-01T03:53:56.268Z,1011.28
2018-06-01T03:54:56.253Z,1011.33
2018-06-01T03:55:56.259Z,1011.36
2018-06-01T03:56:56.231Z,1011.38
2018-06-01T03:57:56.215Z,1011.38
2018-06-01T03:58:56.207Z,1011.39
2018-06-01T03:59:56.196Z,1011.37
2018-06-01T04:00:56.187Z,1011.38
2018-06-01T04:01:56.191Z,1011.36
2018-06-01T04:02:56.201Z,1011.39
2018-06-01T04:03:56.150Z,1011.34
2018-06-01T04:04:56.143Z,1011.36
2018-06-01T04:05:56.133Z,1011.35
2018-06-01T04:06:56.162Z,1011.41
2018-06-01T04:07:56.137Z,1011.44
2018-06-01T04:08:56.096Z,1011.43
2018-06-01T04:09:57.318Z,1011.48
2018-06-01T04:10:56.167Z,1011.44
2018-06-01T04:11:56.078Z,1011.43
2018-06-01T04:12:56.051Z,1011.43
2018-06-01T04:13:56.041Z,1011.42
2018-06-01T04:14:56.027Z,1011.45
2018-06-01T04:15:56.016Z,1011.51
2018-06-01T04:16:56.009Z,1011.54
2018-06-01T04:17:56.016Z,1011.59
2018-06-01T04:18:55.989Z,1011.66
2018-06-01T04:19:55.976Z,1011.73
2018-06-01T04:20:55.961Z,1011.74
2018-06-01T04:21:55.948Z,1011.72
2018-06-01T04:22:55.950Z,1011.76
2018-06-01T04:23:55.926Z,1011.80
2018-06-01T04:24:55.920Z,1011.80
2018-06-01T04:25:55.906Z,1011.86
2018-06-01T04:26:55.897Z,1011.89
2018-06-01T04:27:55.894Z,1011.90
2018-06-01T04:28:55.886Z,1011.95
2018-06-01T04:29:55.859Z,1011.97
2018-06-01T04:30:55.844Z,1012.08
2018-06-01T04:31:55.834Z,1012.14
2018-06-01T04:32:55.834Z,1012.20
2018-06-01T04:33:55.813Z,1012.28
2018-06-01T04:34:55.816Z,1012.38
2018-06-01T04:35:55.783Z,1012.45
2018-06-01T04:36:55.777Z,1012.58
2018-06-01T04:37:55.783Z,1012.64
2018-06-01T04:38:55.757Z,1012.76
2018-06-01T04:39:55.743Z,1012.79
2018-06-01T04:40:55.751Z,1012.82
2018-06-01T04:41:55.723Z,1012.85
2018-06-01T04:42:55.712Z,1012.83
2018-06-01T04:43:55.718Z,1012.85
2018-06-01T04:44:55.687Z,1012.84
2018-06-01T04:45:56.134Z,1012.79
2018-06-01T04:46:55.663Z,1012.74
2018-06-01T04:47:55.660Z,1012.69
2018-06-01T04:48:55.648Z,1012.68
2018-06-01T04:49:57.022Z,1012.67
2018-06-01T04:50:56.901Z,1012.64
2018-06-01T04:52:03.122Z,1012.72
2018-06-01T04:52:55.617Z,1012.72
2018-06-01T04:53:55.582Z,1012.69
2018-06-01T04:54:55.569Z,1012.66
2018-06-01T04:55:55.571Z,1012.70
2018-06-01T04:56:55.545Z,1012.68
2018-06-01T04:57:55.532Z,1012.75
2018-06-01T04:58:55.519Z,1012.78
2018-06-01T04:59:55.509Z,1012.74
2018-06-01T05:00:55.513Z,1012.78
2018-06-01T05:01:55.501Z,1012.82
2018-06-01T05:02:55.474Z,1012.80
2018-06-01T05:03:55.461Z,1012.82
2018-06-01T05:04:55.450Z,1012.83
2018-06-01T05:05:55.435Z,1012.80
2018-06-01T05:06:55.438Z,1012.82
2018-06-01T05:07:55.413Z,1012.80
2018-06-01T05:08:55.400Z,1012.80
2018-06-01T05:09:55.387Z,1012.76
2018-06-01T05:10:55.388Z,1012.77
2018-06-01T05:11:55.380Z,1012.75
2018-06-01T05:12:55.359Z,1012.77
2018-06-01T05:13:55.339Z,1012.79
2018-06-01T05:14:55.330Z,1012.85
2018-06-01T05:15:55.316Z,1012.83
2018-06-01T05:16:55.302Z,1012.85
2018-06-01T05:17:55.310Z,1012.92
2018-06-01T05:18:55.288Z,1012.94
2018-06-01T05:19:55.272Z,1012.98
2018-06-01T05:20:55.260Z,1012.96
2018-06-01T05:21:55.262Z,1013.02
2018-06-01T05:22:55.230Z,1013.03
2018-06-01T05:23:57.069Z,1013.05
2018-06-01T05:24:56.068Z,1013.10
2018-06-01T05:25:55.198Z,1013.13
2018-06-01T05:26:55.186Z,1013.16
2018-06-01T05:27:55.175Z,1013.20
2018-06-01T05:28:56.150Z,1013.19
2018-06-01T05:29:55.167Z,1013.22
2018-06-01T05:30:55.143Z,1013.22
2018-06-01T05:31:55.125Z,1013.21
2018-06-01T05:32:55.116Z,1013.20
2018-06-01T05:33:55.122Z,1013.16
2018-06-01T05:34:55.109Z,1013.07
2018-06-01T05:35:55.078Z,1012.91
2018-06-01T05:36:55.067Z,1012.83
2018-06-01T05:37:55.055Z,1012.63
2018-06-01T05:38:55.057Z,1012.48
2018-06-01T05:39:55.034Z,1012.33
2018-06-01T05:40:55.018Z,1012.24
2018-06-01T05:41:55.008Z,1012.17
2018-06-01T05:42:54.996Z,1012.14
2018-06-01T05:43:55.004Z,1012.20
2018-06-01T05:44:54.972Z,1012.20
2018-06-01T05:45:54.962Z,1012.21
2018-06-01T05:46:54.948Z,1012.23
2018-06-01T05:47:54.936Z,1012.28
2018-06-01T05:48:54.939Z,1012.22
2018-06-01T05:49:54.916Z,1012.23
2018-06-01T05:50:54.902Z,1012.23
2018-06-01T05:51:54.905Z,1012.20
2018-06-01T05:52:54.878Z,1012.18
2018-06-01T05:53:54.865Z,1012.15
2018-06-01T05:54:54.854Z,1012.13
2018-06-01T05:55:54.842Z,1012.09
2018-06-01T05:56:54.831Z,1012.04
2018-06-01T05:57:54.833Z,1012.06
2018-06-01T05:58:54.805Z,1012.00
2018-06-01T05:59:54.808Z,1011.98
2018-06-01T06:00:54.802Z,1011.97
2018-06-01T06:01:54.772Z,1011.93
2018-06-01T06:02:54.754Z,1011.90
2018-06-01T06:03:54.747Z,1011.87
2018-06-01T06:04:54.746Z,1011.88
2018-06-01T06:05:54.722Z,1011.86
2018-06-01T06:06:54.715Z,1011.84
2018-06-01T06:07:54.698Z,1011.85
2018-06-01T06:08:54.685Z,1011.80
2018-06-01T06:09:54.692Z,1011.81
2018-06-01T06:10:54.663Z,1011.78
2018-06-01T06:11:54.651Z,1011.81
2018-06-01T06:12:54.641Z,1011.79
2018-06-01T06:13:54.629Z,1011.81
2018-06-01T06:14:54.616Z,1011.80
2018-06-01T06:15:54.622Z,1011.85
2018-06-01T06:16:54.595Z,1011.81
2018-06-01T06:17:54.580Z,1011.84
2018-06-01T06:18:54.568Z,1011.86
2018-06-01T06:19:54.572Z,1011.84
2018-06-01T06:20:54.565Z,1011.76
2018-06-01T06:21:54.536Z,1011.81
2018-06-01T06:22:54.518Z,1011.80
2018-06-01T06:23:54.510Z,1011.78
2018-06-01T06:24:54.497Z,1011.76
2018-06-01T06:25:54.504Z,1011.75
2018-06-01T06:26:54.487Z,1011.78
2018-06-01T06:27:54.465Z,1011.80
2018-06-01T06:28:54.450Z,1011.81
2018-06-01T06:29:54.440Z,1011.80
2018-06-01T06:30:54.427Z,1011.86
2018-06-01T06:31:54.431Z,1011.90
2018-06-01T06:32:54.403Z,1011.90
2018-06-01T06:33:54.390Z,1011.91
2018-06-01T06:34:54.380Z,1011.92
2018-06-01T06:35:54.367Z,1011.94
2018-06-01T06:36:54.374Z,1011.93
2018-06-01T06:37:54.356Z,1011.95
2018-06-01T06:38:54.329Z,1011.94
2018-06-01T06:39:54.320Z,1011.98
2018-06-01T06:40:54.307Z,1011.98
2018-06-01T06:41:54.300Z,1012.01
2018-06-01T06:42:54.307Z,1011.98
2018-06-01T06:43:54.275Z,1011.97
2018-06-01T06:44:54.264Z,1011.96
2018-06-01T06:45:54.253Z,1011.95
2018-06-01T06:46:54.244Z,1011.88
2018-06-01T06:47:54.229Z,1011.82
2018-06-01T06:48:54.235Z,1011.83
2018-06-01T06:49:54.207Z,1011.80
2018-06-01T06:50:54.191Z,1011.78
2018-06-01T06:51:54.186Z,1011.72
2018-06-01T06:52:54.168Z,1011.72
2018-06-01T06:53:54.172Z,1011.71
2018-06-01T06:54:54.151Z,1011.69
2018-06-01T06:55:54.152Z,1011.73
2018-06-01T06:56:54.127Z,1011.69
2018-06-01T06:57:54.126Z,1011.66
2018-06-01T06:58:54.121Z,1011.67
2018-06-01T06:59:54.092Z,1011.70
2018-06-01T07:00:54.078Z,1011.69
2018-06-01T07:01:54.069Z,1011.68
2018-06-01T07:02:54.069Z,1011.67
2018-06-01T07:03:54.594Z,1011.69
2018-06-01T07:04:54.035Z,1011.69
2018-06-01T07:05:54.024Z,1011.64
2018-06-01T07:06:54.011Z,1011.66
2018-06-01T07:07:54.019Z,1011.64
2018-06-01T07:08:53.990Z,1011.68
2018-06-01T07:09:53.978Z,1011.66
2018-06-01T07:10:53.966Z,1011.63
2018-06-01T07:11:53.952Z,1011.64
2018-06-01T07:12:53.960Z,1011.60
2018-06-01T07:13:53.932Z,1011.58
2018-06-01T07:14:53.922Z,1011.58
2018-06-01T07:15:53.907Z,1011.56
2018-06-01T07:16:53.899Z,1011.52
2018-06-01T07:17:53.887Z,1011.53
2018-06-01T07:18:53.893Z,1011.53
2018-06-01T07:19:53.867Z,1011.53
2018-06-01T07:20:53.857Z,1011.47
2018-06-01T07:21:53.844Z,1011.49
2018-06-01T07:22:53.835Z,1011.49
2018-06-01T07:23:53.840Z,1011.55
2018-06-01T07:24:53.809Z,1011.52
2018-06-01T07:25:53.800Z,1011.52
2018-06-01T07:26:53.787Z,1011.55
2018-06-01T07:27:53.778Z,1011.49
2018-06-01T07:28:53.767Z,1011.47
2018-06-01T07:29:53.774Z,1011.45
2018-06-01T07:30:53.744Z,1011.42
2018-06-01T07:31:53.735Z,1011.40
2018-06-01T07:32:53.725Z,1011.41
2018-06-01T07:33:53.707Z,1011.42
2018-06-01T07:34:53.699Z,1011.42
2018-06-01T07:35:53.703Z,1011.43
2018-06-01T07:36:53.694Z,1011.44
2018-06-01T07:37:53.669Z,1011.49
2018-06-01T07:38:53.657Z,1011.51
2018-06-01T07:39:53.649Z,1011.53
2018-06-01T07:40:53.636Z,1011.57
2018-06-01T07:41:53.637Z,1011.58
2018-06-01T07:42:53.613Z,1011.58
2018-06-01T07:43:53.604Z,1011.62
2018-06-01T07:44:53.594Z,1011.67
2018-06-01T07:45:53.585Z,1011.67
2018-06-01T07:46:53.606Z,1011.67
2018-06-01T07:47:53.560Z,1011.74
2018-06-01T07:48:53.545Z,1011.78
2018-06-01T07:49:53.537Z,1011.77
2018-06-01T07:50:53.526Z,1011.79
2018-06-01T07:51:53.528Z,1011.86
2018-06-01T07:52:53.523Z,1011.89
2018-06-01T07:53:53.496Z,1011.94
2018-06-01T07:54:53.483Z,1011.92
2018-06-01T07:55:53.474Z,1011.92
2018-06-01T07:56:53.464Z,1011.90
2018-06-01T07:57:53.467Z,1011.89
2018-06-01T07:58:53.442Z,1011.92
2018-06-01T07:59:53.427Z,1011.88
2018-06-01T08:00:53.420Z,1011.84
2018-06-01T08:01:53.413Z,1011.84
2018-06-01T08:02:53.418Z,1011.83
2018-06-01T08:03:53.393Z,1011.85
2018-06-01T08:04:53.379Z,1011.89
2018-06-01T08:05:53.373Z,1011.95
2018-06-01T08:06:53.355Z,1011.98
2018-06-01T08:07:53.362Z,1011.99
2018-06-01T08:08:53.351Z,1012.09
2018-06-01T08:09:53.326Z,1012.12
2018-06-01T08:10:53.314Z,1012.15
2018-06-01T08:11:53.303Z,1012.22
2018-06-01T08:12:53.306Z,1012.24
2018-06-01T08:13:53.286Z,1012.31
2018-06-01T08:14:53.282Z,1012.35
2018-06-01T08:15:53.260Z,1012.39
2018-06-01T08:16:53.253Z,1012.44
2018-06-01T08:17:53.238Z,1012.45
2018-06-01T08:18:53.242Z,1012.50
2018-06-01T08:19:53.217Z,1012.54
2018-06-01T08:20:53.222Z,1012.50
2018-06-01T08:21:53.193Z,1012.54
2018-06-01T08:22:53.178Z,1012.54
2018-06-01T08:23:53.170Z,1012.49
2018-06-01T08:24:53.164Z,1012.48
2018-06-01T08:25:53.151Z,1012.49
2018-06-01T08:26:53.196Z,1012.48
2018-06-01T08:27:53.129Z,1012.52
2018-06-01T08:28:53.119Z,1012.58
2018-06-01T08:29:53.106Z,1012.65
2018-06-01T08:30:53.109Z,1012.68
2018-06-01T08:31:53.085Z,1012.76
2018-06-01T08:32:53.072Z,1012.81
2018-06-01T08:33:53.056Z,1012.81
2018-06-01T08:34:53.054Z,1012.82
2018-06-01T08:35:53.050Z,1012.80
2018-06-01T08:36:53.035Z,1012.80
2018-06-01T08:37:53.013Z,1012.76
2018-06-01T08:38:53.001Z,1012.82
2018-06-01T08:39:52.991Z,1012.80
2018-06-01T08:40:53.007Z,1012.82
2018-06-01T08:41:52.972Z,1012.85
2018-06-01T08:42:52.972Z,1012.87
2018-06-01T08:43:52.946Z,1012.86
2018-06-01T08:44:52.935Z,1012.86
2018-06-01T08:45:52.939Z,1012.88
2018-06-01T08:46:52.912Z,1012.86
2018-06-01T08:47:52.901Z,1012.87
2018-06-01T08:48:52.888Z,1012.89
2018-06-01T08:49:52.872Z,1012.90
2018-06-01T08:50:52.865Z,1012.93
2018-06-01T08:51:52.865Z,1012.89
2018-06-01T08:52:52.837Z,1012.92
2018-06-01T08:53:52.828Z,1012.92
2018-06-01T08:54:52.817Z,1012.87
2018-06-01T08:55:52.806Z,1012.89
2018-06-01T08:56:52.806Z,1012.88
2018-06-01T08:57:52.782Z,1012.86
2018-06-01T08:58:52.776Z,1012.87
2018-06-01T08:59:52.767Z,1012.86
2018-06-01T09:00:52.748Z,1012.86
2018-06-01T09:01:53.222Z,1012.85
2018-06-01T09:02:52.725Z,1012.84
2018-06-01T09:03:52.709Z,1012.84
2018-06-01T09:04:52.699Z,1012.85
2018-06-01T09:05:52.685Z,1012.86
2018-06-01T09:06:52.690Z,1012.86
2018-06-01T09:07:52.666Z,1012.89
2018-06-01T09:08:52.645Z,1012.90
2018-06-01T09:09:52.638Z,1012.95
2018-06-01T09:10:52.627Z,1012.98
2018-06-01T09:11:52.629Z,1012.96
2018-06-01T09:12:52.603Z,1012.99
2018-06-01T09:13:52.584Z,1012.99
2018-06-01T09:14:52.576Z,1013.02
2018-06-01T09:15:52.569Z,1013.03
2018-06-01T09:16:52.566Z,1013.04
2018-06-01T09:17:52.544Z,1013.04
2018-06-01T09:18:52.530Z,1013.07
2018-06-01T09:19:52.517Z,1013.07
2018-06-01T09:20:52.508Z,1013.09
2018-06-01T09:21:52.505Z,1013.09
2018-06-01T09:22:52.500Z,1013.09
2018-06-01T09:23:52.469Z,1013.13
2018-06-01T09:24:52.460Z,1013.09
2018-06-01T09:25:52.447Z,1013.19
2018-06-01T09:26:52.441Z,1013.18
2018-06-01T09:27:52.438Z,1013.23
2018-06-01T09:28:52.424Z,1013.21
2018-06-01T09:29:52.415Z,1013.20
2018-06-01T09:30:52.386Z,1013.20
2018-06-01T09:31:52.374Z,1013.23
2018-06-01T09:32:52.366Z,1013.19
2018-06-01T09:33:52.367Z,1013.24
2018-06-01T09:34:52.336Z,1013.20
2018-06-01T09:35:52.329Z,1013.15
2018-06-01T09:36:52.321Z,1013.12
2018-06-01T09:37:52.313Z,1013.07
2018-06-01T09:38:52.309Z,1013.08
2018-06-01T09:39:52.280Z,1013.11
2018-06-01T09:40:52.274Z,1013.15
2018-06-01T09:41:52.258Z,1013.15
2018-06-01T09:42:52.247Z,1013.17
2018-06-01T09:43:52.252Z,1013.19
2018-06-01T09:44:52.233Z,1013.20
2018-06-01T09:45:52.210Z,1013.19
2018-06-01T09:46:52.199Z,1013.19
2018-06-01T09:47:52.181Z,1013.23
2018-06-01T09:48:52.188Z,1013.20
2018-06-01T09:49:52.164Z,1013.20
2018-06-01T09:50:52.162Z,1013.20
2018-06-01T09:51:52.141Z,1013.17
2018-06-01T09:52:52.137Z,1013.22
2018-06-01T09:53:52.117Z,1013.16
2018-06-01T09:54:52.101Z,1013.18
2018-06-01T09:55:52.101Z,1013.18
2018-06-01T09:56:52.079Z,1013.14
2018-06-01T09:57:52.069Z,1013.16
2018-06-01T09:58:52.061Z,1013.16
2018-06-01T09:59:52.045Z,1013.10
2018-06-01T10:00:52.049Z,1013.11
2018-06-01T10:01:52.024Z,1013.11
2018-06-01T10:02:52.005Z,1013.10
2018-06-01T10:03:51.996Z,1013.09
2018-06-01T10:04:51.988Z,1013.09
2018-06-01T10:05:51.988Z,1013.04
2018-06-01T10:06:51.983Z,1013.05
2018-06-01T10:07:51.952Z,1012.96
2018-06-01T10:08:51.939Z,1012.92
2018-06-01T10:09:51.931Z,1012.88
2018-06-01T10:10:51.914Z,1012.88
2018-06-01T10:11:51.906Z,1012.89
2018-06-01T10:12:51.906Z,1012.91
2018-06-01T10:13:51.879Z,1012.92
2018-06-01T10:14:51.869Z,1012.90
2018-06-01T10:15:51.855Z,1012.95
2018-06-01T10:16:51.863Z,1012.93
2018-06-01T10:17:51.851Z,1012.91
2018-06-01T10:18:51.823Z,1012.93
2018-06-01T10:19:51.810Z,1012.95
2018-06-01T10:20:51.800Z,1012.96
2018-06-01T10:21:51.786Z,1012.94
2018-06-01T10:22:51.790Z,1012.92
2018-06-01T10:23:51.765Z,1012.92
2018-06-01T10:24:51.755Z,1012.86
2018-06-01T10:25:51.743Z,1012.86
2018-06-01T10:26:51.726Z,1012.89
2018-06-01T10:27:51.736Z,1012.88
2018-06-01T10:29:12.728Z,1012.85
2018-06-01T10:29:51.697Z,1012.83
2018-06-01T10:30:51.724Z,1012.83
2018-06-01T10:31:51.670Z,1012.89
2018-06-01T10:32:51.667Z,1012.88
2018-06-01T10:33:51.647Z,1012.91
2018-06-01T10:34:51.656Z,1012.87
2018-06-01T10:35:51.625Z,1012.89
2018-06-01T10:36:51.614Z,1012.87
2018-06-01T10:37:51.607Z,1012.90
2018-06-01T10:38:51.596Z,1012.89
2018-06-01T10:39:51.599Z,1012.91
2018-06-01T10:40:51.571Z,1012.89
2018-06-01T10:41:51.555Z,1012.88
2018-06-01T10:42:51.548Z,1012.87
2018-06-01T10:43:51.534Z,1012.85
2018-06-01T10:44:51.551Z,1012.90
2018-06-01T10:45:51.516Z,1012.88
2018-06-01T10:46:51.506Z,1012.86
2018-06-01T10:47:51.535Z,1012.84
2018-06-01T10:48:51.475Z,1012.86
2018-06-01T10:49:51.471Z,1012.83
2018-06-01T10:50:51.473Z,1012.84
2018-06-01T10:51:51.448Z,1012.85
2018-06-01T10:52:51.434Z,1012.83
2018-06-01T10:53:51.438Z,1012.85
2018-06-01T10:54:51.413Z,1012.83
2018-06-01T10:55:51.398Z,1012.86
2018-06-01T10:56:51.406Z,1012.85
2018-06-01T10:57:51.382Z,1012.88
2018-06-01T10:58:51.389Z,1012.84
2018-06-01T10:59:51.353Z,1012.84
2018-06-01T11:00:51.345Z,1012.84
2018-06-01T11:01:51.338Z,1012.89
2018-06-01T11:02:51.329Z,1012.89
2018-06-01T11:03:51.311Z,1012.89
2018-06-01T11:04:51.313Z,1012.88
2018-06-01T11:05:51.290Z,1012.92
2018-06-01T11:06:51.278Z,1012.87
2018-06-01T11:07:51.301Z,1012.90
2018-06-01T11:08:51.657Z,1012.90
2018-06-01T11:09:51.237Z,1012.90
2018-06-01T11:10:51.231Z,1012.91
2018-06-01T11:11:51.220Z,1012.92
2018-06-01T11:12:51.213Z,1012.93
2018-06-01T11:13:51.216Z,1012.94
2018-06-01T11:14:51.194Z,1012.95
2018-06-01T11:15:51.175Z,1012.93
2018-06-01T11:16:51.160Z,1012.96
2018-06-01T11:17:51.153Z,1012.98
2018-06-01T11:18:51.144Z,1012.97
2018-06-01T11:19:51.149Z,1012.93
2018-06-01T11:20:51.115Z,1012.98
2018-06-01T11:21:51.110Z,1012.94
2018-06-01T11:22:51.116Z,1012.93
2018-06-01T11:23:51.103Z,1012.94
2018-06-01T11:24:51.090Z,1012.99
2018-06-01T11:25:51.077Z,1012.98
2018-06-01T11:26:51.050Z,1012.98
2018-06-01T11:27:51.039Z,1012.93
2018-06-01T11:28:51.050Z,1012.97
2018-06-01T11:29:51.024Z,1012.99
2018-06-01T11:30:51.011Z,1013.01
2018-06-01T11:31:50.995Z,1012.97
2018-06-01T11:32:50.992Z,1012.98
2018-06-01T11:33:51.000Z,1012.99
2018-06-01T11:34:50.979Z,1013.01
2018-06-01T11:35:50.967Z,1013.02
2018-06-01T11:36:50.957Z,1012.96
2018-06-01T11:37:50.930Z,1012.93
2018-06-01T11:38:50.925Z,1012.89
2018-06-01T11:39:50.929Z,1012.97
2018-06-01T11:40:50.902Z,1012.91
2018-06-01T11:41:50.891Z,1012.93
2018-06-01T11:42:50.881Z,1012.96
2018-06-01T11:43:50.883Z,1012.90
2018-06-01T11:44:50.873Z,1012.97
2018-06-01T11:45:50.863Z,1012.94
2018-06-01T11:46:50.835Z,1012.94
2018-06-01T11:47:50.829Z,1012.94
2018-06-01T11:48:50.818Z,1012.93
2018-06-01T11:49:50.811Z,1012.94
2018-06-01T11:50:50.809Z,1012.94
2018-06-01T11:51:50.778Z,1013.00
2018-06-01T11:52:50.773Z,1012.96
2018-06-01T11:53:50.764Z,1012.96
2018-06-01T11:54:50.752Z,1012.97
2018-06-01T11:55:50.754Z,1013.01
2018-06-01T11:56:50.736Z,1013.00
2018-06-01T11:57:50.738Z,1012.99
2018-06-01T11:58:50.705Z,1012.97
2018-06-01T11:59:50.699Z,1012.97
2018-06-01T12:00:50.693Z,1013.00
2018-06-01T12:01:50.704Z,1012.98
2018-06-01T12:02:50.687Z,1012.96
2018-06-01T12:03:50.658Z,1012.90
2018-06-01T12:04:50.651Z,1012.93
2018-06-01T12:05:50.636Z,1012.91